TimeMDT,TemperatureF,Dew PointF,Humidity,Sea Level PressureIn,VisibilityMPH,Wind Direction,Wind SpeedMPH,Gust SpeedMPH,PrecipitationIn,Events,Conditions,WindDirDegrees,DateUTC
12:15 AM,28.4,24.8,86,30.14,10.0,Calm,Calm,-,N/A,,Scattered Clouds,0,2013-10-17 06:15:00
12:35 AM,28.4,24.8,86,30.14,10.0,Calm,Calm,-,N/A,,Overcast,0,2013-10-17 06:35:00
12:55 AM,26.6,24.8,93,30.14,10.0,Calm,Calm,-,N/A,,Overcast,0,2013-10-17 06:55:00
1:15 AM,28.4,24.8,86,30.13,10.0,Calm,Calm,-,N/A,,Overcast,0,2013-10-17 07:15:00
1:35 AM,26.6,24.8,93,30.14,10.0,North,3.5,-,N/A,,Overcast,10,2013-10-17 07:35:00
1:55 AM,26.6,24.8,93,30.14,10.0,North,3.5,-,N/A,,Mostly Cloudy,360,2013-10-17 07:55:00
2:15 AM,24.8,24.8,100,30.14,10.0,North,3.5,-,N/A,,Mostly Cloudy,350,2013-10-17 08:15:00
2:35 AM,24.8,24.8,100,30.14,10.0,NNE,3.5,-,N/A,,Scattered Clouds,30,2013-10-17 08:35:00
2:55 AM,26.6,24.8,93,30.13,10.0,NNE,3.5,-,N/A,,Partly Cloudy,20,2013-10-17 08:55:00
3:15 AM,26.6,24.8,93,30.13,10.0,Calm,Calm,-,N/A,,Clear,0,2013-10-17 09:15:00
3:35 AM,26.6,24.8,93,30.13,10.0,Calm,Calm,-,N/A,,Clear,0,2013-10-17 09:35:00
3:55 AM,26.6,24.8,93,30.12,10.0,Calm,Calm,-,N/A,,Scattered Clouds,0,2013-10-17 09:55:00
4:15 AM,26.6,24.8,93,30.12,10.0,Calm,Calm,-,N/A,,Mostly Cloudy,0,2013-10-17 10:15:00
4:35 AM,24.8,24.8,100,30.12,10.0,North,4.6,-,N/A,,Mostly Cloudy,10,2013-10-17 10:35:00
4:55 AM,26.6,24.8,93,30.12,10.0,NNE,3.5,-,N/A,,Mostly Cloudy,30,2013-10-17 10:55:00
5:15 AM,24.8,24.8,100,30.12,10.0,Calm,Calm,-,N/A,,Scattered Clouds,0,2013-10-17 11:15:00
5:35 AM,24.8,24.8,100,30.11,10.0,North,3.5,-,N/A,,Partly Cloudy,10,2013-10-17 11:35:00
5:55 AM,24.8,24.8,100,30.11,10.0,North,3.5,-,N/A,,Clear,360,2013-10-17 11:55:00
6:15 AM,24.8,24.8,100,30.11,10.0,Calm,Calm,-,N/A,,Clear,0,2013-10-17 12:15:00
6:35 AM,26.6,24.8,93,30.11,10.0,Calm,Calm,-,N/A,,Mostly Cloudy,0,2013-10-17 12:35:00
6:53 AM,24.8,24.8,100,30.11,10.0,Calm,Calm,-,N/A,,Overcast,0,2013-10-17 12:53:00
7:55 AM,26.6,26.6,100,30.12,10.0,NNE,6.9,-,N/A,,Overcast,30,2013-10-17 13:55:00
8:56 AM,28.4,26.6,93,30.13,10.0,Calm,Calm,-,N/A,,Overcast,0,2013-10-17 14:56:00
9:52 AM,30.2,28.4,93,30.13,10.0,Calm,Calm,-,N/A,,Mostly Cloudy,0,2013-10-17 15:52:00
10:53 AM,33.8,28.4,81,30.13,10.0,Calm,Calm,-,N/A,,Mostly Cloudy,0,2013-10-17 16:53:00
11:55 AM,35.6,26.6,70,30.12,10.0,Calm,Calm,-,N/A,,Mostly Cloudy,0,2013-10-17 17:55:00
12:51 PM,39.2,28.4,65,30.10,10.0,West,4.6,-,N/A,,Unknown,260,2013-10-17 18:51:00
1:55 PM,39.2,24.8,56,30.09,10.0,Calm,Calm,-,N/A,,Overcast,0,2013-10-17 19:55:00
2:51 PM,41.0,21.2,45,30.08,10.0,West,6.9,-,N/A,,Mostly Cloudy,260,2013-10-17 20:51:00
3:51 PM,39.2,21.2,49,30.08,10.0,West,12.7,17.3,N/A,,Mostly Cloudy,270,2013-10-17 21:51:00
5:52 PM,37.4,28.4,70,30.10,10.0,SW,4.6,-,N/A,,Mostly Cloudy,220,2013-10-17 23:52:00
6:51 PM,39.2,21.2,49,30.10,10.0,WNW,8.1,-,N/A,,Mostly Cloudy,300,2013-10-18 00:51:00
7:51 PM,37.4,26.6,65,30.12,10.0,Calm,Calm,-,N/A,,Mostly Cloudy,0,2013-10-18 01:51:00
8:55 PM,33.8,26.6,75,30.14,10.0,West,4.6,-,N/A,,Overcast,280,2013-10-18 02:55:00
9:15 PM,33.8,26.6,75,30.14,-9999.0,Calm,Calm,-,N/A,,Overcast,0,2013-10-18 03:15:00
9:35 PM,35.6,26.6,70,30.14,-9999.0,Calm,Calm,-,N/A,,Overcast,0,2013-10-18 03:35:00
9:55 PM,33.8,26.6,75,30.16,10.0,ENE,5.8,-,N/A,,Overcast,70,2013-10-18 03:55:00
10:15 PM,33.8,26.6,75,30.15,10.0,East,4.6,-,N/A,,Overcast,90,2013-10-18 04:15:00
10:35 PM,33.8,26.6,75,30.16,10.0,NNW,3.5,-,N/A,,Overcast,330,2013-10-18 04:35:00
10:55 PM,33.8,26.6,75,30.17,10.0,Calm,Calm,-,N/A,,Overcast,0,2013-10-18 04:55:00
11:15 PM,33.8,26.6,75,30.17,10.0,ENE,4.6,-,N/A,,Overcast,60,2013-10-18 05:15:00
11:35 PM,33.8,24.8,70,30.18,10.0,NNE,6.9,-,N/A,,Overcast,30,2013-10-18 05:35:00